| time (UTC) | temp F | wind direction | speed knots | gust knots | rain 1hr in | rain 24hr in | rain mn in | humidity % | barometer mb |
| 20260509212648 | 60 | 324 | 2.6 | 2.6 | 0.00 | 0.18 | 0.18 | 67 | 1009.3 |
| 20260509212145 | 61 | 341 | 1.7 | 1.7 | 0.00 | 0.18 | 0.18 | 66 | 1009.4 |
| 20260509211641 | 62 | 292 | 2.6 | 2.6 | 0.00 | 0.18 | 0.18 | 63 | 1009.4 |
| 20260509211138 | 62 | 282 | 7.0 | 8.7 | 0.00 | 0.18 | 0.18 | 63 | 1009.4 |
| 20260509210635 | 61 | 278 | 1.7 | 1.7 | 0.00 | 0.18 | 0.18 | 64 | 1009.4 |
| 20260509210132 | 61 | 202 | 7.8 | 11.3 | 0.00 | 0.18 | 0.18 | 65 | 1009.4 |
| 20260509205627 | 62 | 185 | 5.2 | 7.8 | 0.00 | 0.18 | 0.18 | 64 | 1009.5 |
| 20260509205121 | 62 | 204 | 7.0 | 8.7 | 0.00 | 0.18 | 0.18 | 63 | 1009.5 |
| 20260509204617 | 62 | 297 | 1.7 | 1.7 | 0.00 | 0.18 | 0.18 | 64 | 1009.7 |
| 20260509204114 | 61 | 147 | 3.5 | 5.2 | 0.00 | 0.18 | 0.18 | 65 | 1009.5 |
| 20260509203610 | 60 | 227 | 4.3 | 5.2 | 0.00 | 0.18 | 0.18 | 67 | 1009.6 |
| 20260509203103 | 59 | 52 | 2.6 | 2.6 | 0.00 | 0.18 | 0.18 | 69 | 1009.6 |
| 20260509202557 | 59 | 250 | 1.7 | 1.7 | 0.00 | 0.18 | 0.18 | 70 | 1009.5 |
| 20260509202053 | 60 | 202 | 7.8 | 9.6 | 0.00 | 0.18 | 0.18 | 69 | 1009.5 |
| 20260509201548 | 59 | 297 | 0.9 | 1.7 | 0.00 | 0.18 | 0.18 | 70 | 1009.7 |
| 20260509201046 | 61 | 277 | 2.6 | 2.6 | 0.00 | 0.18 | 0.18 | 69 | 1009.7 |
| 20260509200545 | 60 | 322 | 0.9 | 1.7 | 0.00 | 0.18 | 0.18 | 70 | 1009.7 |
| 20260509200042 | 60 | 238 | 2.6 | 2.6 | 0.00 | 0.18 | 0.18 | 68 | 1009.7 |
| 20260509195537 | 59 | 231 | 6.1 | 8.7 | 0.00 | 0.18 | 0.18 | 69 | 1009.8 |
| 20260509195032 | 60 | 226 | 5.2 | 7.8 | 0.00 | 0.18 | 0.18 | 69 | 1010.1 |
| 20260509194527 | 60 | 253 | 3.5 | 4.3 | 0.00 | 0.18 | 0.18 | 68 | 1010.0 |
| 20260509194025 | 60 | 342 | 1.7 | 4.3 | 0.00 | 0.18 | 0.18 | 68 | 1010.0 |
| 20260509193525 | 59 | 165 | 1.7 | 1.7 | 0.00 | 0.18 | 0.18 | 70 | 1010.1 |
| 20260509193022 | 58 | 342 | 2.6 | 4.3 | 0.00 | 0.18 | 0.18 | 70 | 1010.1 |
| 20260509192518 | 59 | 165 | 3.5 | 5.2 | 0.00 | 0.18 | 0.18 | 72 | 1010.1 |
| 20260509192013 | 58 | 290 | 5.2 | 7.0 | 0.00 | 0.18 | 0.18 | 69 | 1010.0 |
| 20260509191508 | 59 | 142 | 2.6 | 4.3 | 0.00 | 0.18 | 0.18 | 70 | 1010.1 |
| 20260509191004 | 59 | 208 | 7.0 | 9.6 | 0.00 | 0.18 | 0.18 | 68 | 1010.1 |
| 20260509190501 | 59 | 203 | 1.7 | 2.6 | 0.00 | 0.18 | 0.18 | 70 | 1010.1 |
| 20260509185959 | 58 | 272 | 3.5 | 5.2 | 0.00 | 0.18 | 0.18 | 71 | 1010.2 |
| 20260509185456 | 57 | 304 | 0.9 | 0.9 | 0.00 | 0.18 | 0.18 | 74 | 1010.1 |
| 20260509184952 | 56 | 20 | 0.0 | 0.0 | 0.00 | 0.18 | 0.18 | 78 | 1010.1 |
| 20260509184451 | 56 | 350 | 0.0 | 0.9 | 0.00 | 0.18 | 0.18 | 77 | 1010.0 |
| 20260509183947 | 56 | 326 | 1.7 | 1.7 | 0.00 | 0.18 | 0.18 | 77 | 1010.0 |
| 20260509183441 | 56 | 277 | 0.9 | 0.9 | 0.00 | 0.18 | 0.18 | 77 | 1010.1 |
| 20260509182938 | 56 | 259 | 2.6 | 4.3 | 0.00 | 0.18 | 0.18 | 78 | 1009.9 |
| 20260509182434 | 55 | 222 | 3.5 | 6.1 | 0.00 | 0.18 | 0.18 | 78 | 1010.0 |
| 20260509181931 | 55 | 242 | 1.7 | 2.6 | 0.00 | 0.18 | 0.18 | 78 | 1010.1 |
| 20260509181429 | 55 | 192 | 4.3 | 6.1 | 0.00 | 0.18 | 0.18 | 79 | 1010.0 |
| 20260509180926 | 55 | 198 | 4.3 | 6.1 | 0.00 | 0.18 | 0.18 | 78 | 1009.8 |
| 20260509180422 | 55 | 216 | 4.3 | 7.0 | 0.00 | 0.18 | 0.18 | 80 | 1010.1 |
| 20260509175919 | 55 | 281 | 1.7 | 1.7 | 0.00 | 0.18 | 0.18 | 78 | 1010.1 |
| 20260509175415 | 54 | 230 | 2.6 | 2.6 | 0.00 | 0.18 | 0.18 | 79 | 1010.1 |
| 20260509174911 | 54 | 307 | 3.5 | 5.2 | 0.00 | 0.18 | 0.18 | 81 | 1010.1 |
| 20260509174408 | 54 | 225 | 4.3 | 6.1 | 0.00 | 0.18 | 0.18 | 80 | 1010.0 |
| 20260509173903 | 54 | 294 | 3.5 | 4.3 | 0.00 | 0.18 | 0.18 | 81 | 1010.2 |
| 20260509173357 | 53 | 259 | 3.5 | 6.1 | 0.00 | 0.18 | 0.18 | 83 | 1010.0 |
| 20260509172854 | 53 | 282 | 2.6 | 2.6 | 0.00 | 0.18 | 0.18 | 85 | 1010.2 |
| 20260509172351 | 53 | 189 | 3.5 | 4.3 | 0.00 | 0.18 | 0.18 | 84 | 1010.1 |
| 20260509171847 | 53 | 221 | 4.3 | 5.2 | 0.00 | 0.18 | 0.18 | 85 | 1010.2 |
| 20260509171343 | 53 | 238 | 3.5 | 4.3 | 0.00 | 0.18 | 0.18 | 86 | 1010.1 |
| 20260509170840 | 52 | 200 | 2.6 | 2.6 | 0.00 | 0.18 | 0.18 | 85 | 1010.4 |
| 20260509170336 | 52 | 257 | 2.6 | 4.3 | 0.00 | 0.18 | 0.18 | 88 | 1010.2 |
| 20260509165830 | 52 | 201 | 1.7 | 2.6 | 0.00 | 0.18 | 0.18 | 89 | 1010.1 |
| 20260509165325 | 52 | 259 | 1.7 | 2.6 | 0.00 | 0.18 | 0.18 | 89 | 1010.2 |
| 20260509164821 | 51 | 209 | 3.5 | 4.3 | 0.00 | 0.18 | 0.18 | 91 | 1010.2 |
| 20260509164317 | 52 | 227 | 1.7 | 1.7 | 0.00 | 0.18 | 0.18 | 91 | 1010.1 |
| 20260509163814 | 51 | 227 | 0.9 | 1.7 | 0.00 | 0.18 | 0.18 | 93 | 1010.2 |
| 20260509163310 | 51 | 207 | 1.7 | 1.7 | 0.00 | 0.18 | 0.18 | 94 | 1010.2 |
| 20260509162809 | 51 | 220 | 4.3 | 5.2 | 0.00 | 0.18 | 0.18 | 94 | 1010.2 |
| 20260509162306 | 50 | 304 | 1.7 | 2.6 | 0.00 | 0.18 | 0.18 | 94 | 1010.3 |
| 20260509161759 | 50 | 229 | 4.3 | 5.2 | 0.00 | 0.18 | 0.18 | 94 | 1010.4 |
| 20260509161255 | 50 | 200 | 2.6 | 2.6 | 0.00 | 0.18 | 0.18 | 94 | 1010.7 |
| 20260509160751 | 51 | 305 | 2.6 | 4.3 | 0.00 | 0.18 | 0.18 | 94 | 1010.8 |
| 20260509160247 | 51 | 214 | 3.5 | 7.0 | 0.00 | 0.18 | 0.18 | 95 | 1010.6 |
| 20260509155742 | 51 | 245 | 2.6 | 4.3 | 0.07 | 0.18 | 0.18 | 96 | 1010.7 |
| 20260509155239 | 51 | 232 | 3.5 | 4.3 | 0.07 | 0.18 | 0.18 | 98 | 1010.6 |
| 20260509154735 | 50 | 166 | 2.6 | 4.3 | 0.00 | 0.17 | 0.17 | 99 | 1010.7 |
| 20260509154233 | 50 | 197 | 2.6 | 2.6 | 0.00 | 0.17 | 0.17 | 98 | 1010.9 |
| 20260509153730 | 49 | 176 | 1.7 | 1.7 | 0.00 | 0.17 | 0.17 | 98 | 1010.9 |
| 20260509153226 | 49 | 233 | 2.6 | 4.3 | 0.00 | 0.17 | 0.17 | 98 | 1010.8 |
| 20260509152722 | 49 | 251 | 0.9 | 1.7 | 0.00 | 0.17 | 0.17 | 98 | 1010.4 |
| 20260509152219 | 49 | 248 | 1.7 | 1.7 | 0.00 | 0.17 | 0.17 | 98 | 1010.9 |
| 20260509151716 | 50 | 230 | 1.7 | 4.3 | 0.00 | 0.17 | 0.17 | 98 | 1010.6 |
| 20260509151213 | 50 | 7 | 0.9 | 1.7 | 0.00 | 0.17 | 0.17 | 98 | 1010.8 |
| 20260509150710 | 49 | 64 | 0.9 | 0.9 | 0.05 | 0.17 | 0.17 | 98 | 1011.0 |
| 20260509150209 | 50 | 304 | 1.7 | 1.7 | 0.05 | 0.17 | 0.17 | 98 | 1010.8 |
| 20260509145704 | 50 | 206 | 0.9 | 1.7 | 0.05 | 0.17 | 0.17 | 98 | 1010.8 |
| 20260509145200 | 49 | 261 | 2.6 | 2.6 | 0.00 | 0.16 | 0.16 | 98 | 1010.7 |
| 20260509144656 | 50 | 331 | 0.0 | 0.9 | 0.00 | 0.16 | 0.16 | 98 | 1010.8 |
| 20260509144154 | 49 | 266 | 1.7 | 1.7 | 0.00 | 0.16 | 0.16 | 98 | 1010.7 |
| 20260509143651 | 49 | 334 | 1.7 | 2.6 | 0.00 | 0.16 | 0.16 | 98 | 1010.7 |
| 20260509143149 | 49 | 214 | 3.5 | 5.2 | 0.00 | 0.16 | 0.16 | 98 | 1010.6 |
| 20260509142644 | 49 | 214 | 2.6 | 5.2 | 0.07 | 0.16 | 0.16 | 99 | 1010.9 |
| 20260509142141 | 49 | 323 | 1.7 | 1.7 | 0.07 | 0.16 | 0.16 | 99 | 1010.7 |
| 20260509141636 | 49 | 327 | 1.7 | 1.7 | 0.00 | 0.15 | 0.15 | 99 | 1010.8 |
| 20260509141133 | 49 | 313 | 1.7 | 1.7 | 0.00 | 0.15 | 0.15 | 99 | 1010.7 |
| 20260509140630 | 48 | 74 | 0.0 | 0.0 | 0.00 | 0.15 | 0.15 | 99 | 1010.8 |
| 20260509140128 | 49 | 247 | 3.5 | 4.3 | 0.00 | 0.15 | 0.15 | 99 | 1010.7 |
| 20260509135625 | 49 | 230 | 2.6 | 2.6 | 0.00 | 0.15 | 0.15 | 99 | 1010.7 |
| 20260509135123 | 48 | 311 | 1.7 | 1.7 | 0.00 | 0.15 | 0.15 | 99 | 1010.7 |
| 20260509134619 | 48 | 207 | 1.7 | 1.7 | 0.00 | 0.15 | 0.15 | 99 | 1010.7 |
| 20260509134117 | 48 | 288 | 0.0 | 0.9 | 0.00 | 0.15 | 0.15 | 99 | 1010.7 |
| 20260509133614 | 48 | 262 | 0.9 | 1.7 | 0.00 | 0.15 | 0.15 | 99 | 1010.8 |
| 20260509133111 | 48 | 225 | 3.5 | 5.2 | 0.05 | 0.15 | 0.15 | 99 | 1010.7 |
| 20260509132609 | 48 | 210 | 1.7 | 4.3 | 0.05 | 0.15 | 0.15 | 99 | 1010.9 |
| 20260509132107 | 48 | 208 | 1.7 | 2.6 | 0.05 | 0.15 | 0.15 | 99 | 1011.1 |
| 20260509131603 | 47 | 286 | 0.9 | 0.9 | 0.00 | 0.14 | 0.14 | 99 | 1011.0 |
| 20260509131100 | 48 | 138 | 0.9 | 0.9 | 0.07 | 0.14 | 0.14 | 99 | 1011.0 |
| 20260509130556 | 47 | 177 | 2.6 | 2.6 | 0.07 | 0.14 | 0.14 | 99 | 1011.2 |
| 20260509130053 | 47 | 74 | 0.9 | 0.9 | 0.00 | 0.13 | 0.13 | 99 | 1011.3 |
| 20260509125549 | 47 | 207 | 2.6 | 2.6 | 0.05 | 0.13 | 0.13 | 99 | 1011.2 |
| 20260509125046 | 47 | 19 | 0.0 | 0.0 | 0.05 | 0.13 | 0.13 | 99 | 1011.1 |
| 20260509124542 | 47 | 340 | 0.9 | 0.9 | 0.07 | 0.12 | 0.12 | 99 | 1011.1 |
| 20260509124040 | 47 | 229 | 2.6 | 2.6 | 0.07 | 0.12 | 0.12 | 99 | 1011.3 |
| 20260509123537 | 47 | 323 | 1.7 | 1.7 | 0.00 | 0.11 | 0.11 | 99 | 1011.1 |
| 20260509123033 | 47 | 22 | 0.0 | 0.0 | 0.00 | 0.11 | 0.11 | 99 | 1011.1 |
| 20260509122530 | 47 | 319 | 0.9 | 0.9 | 0.00 | 0.11 | 0.11 | 99 | 1011.0 |
| 20260509122027 | 47 | 218 | 1.7 | 1.7 | 0.00 | 0.11 | 0.11 | 99 | 1011.1 |
| 20260509121523 | 47 | 234 | 2.6 | 2.6 | 0.05 | 0.11 | 0.11 | 99 | 1011.3 |
| 20260509121021 | 47 | 248 | 0.9 | 0.9 | 0.05 | 0.11 | 0.11 | 99 | 1011.0 |
| 20260509120520 | 47 | 127 | 1.7 | 2.6 | 0.07 | 0.10 | 0.10 | 99 | 1011.2 |
| 20260509120017 | 47 | 337 | 0.0 | 0.0 | 0.07 | 0.10 | 0.10 | 99 | 1011.1 |
| 20260509115514 | 47 | 228 | 1.7 | 1.7 | 0.00 | 0.09 | 0.09 | 99 | 1011.2 |
| 20260509115012 | 47 | 313 | 0.0 | 0.9 | 0.00 | 0.09 | 0.09 | 99 | 1011.3 |
| 20260509114510 | 47 | 265 | 0.9 | 0.9 | 0.00 | 0.09 | 0.09 | 99 | 1011.3 |
| 20260509114009 | 47 | 28 | 0.0 | 0.0 | 0.00 | 0.09 | 0.09 | 99 | 1011.0 |
| 20260509113506 | 47 | 114 | 0.0 | 0.0 | 0.00 | 0.09 | 0.09 | 99 | 1011.0 |
| 20260509113004 | 47 | 123 | 0.0 | 0.0 | 0.07 | 0.09 | 0.09 | 99 | 1011.1 |
| 20260509112500 | 46 | 171 | 0.0 | 0.0 | 0.07 | 0.09 | 0.09 | 99 | 1011.0 |
| 20260509111956 | 46 | 234 | 1.7 | 1.7 | 0.05 | 0.08 | 0.08 | 99 | 1011.0 |
| 20260509111454 | 46 | 4 | 0.9 | 0.9 | 0.05 | 0.08 | 0.08 | 99 | 1010.8 |
| 20260509110951 | 46 | 213 | 0.9 | 0.9 | 0.00 | 0.07 | 0.07 | 99 | 1011.0 |
| 20260509110447 | 46 | 283 | 0.0 | 0.0 | 0.07 | 0.07 | 0.07 | 99 | 1010.9 |
| 20260509105945 | 46 | 124 | 0.0 | 0.0 | 0.07 | 0.07 | 0.07 | 99 | 1011.1 |
| 20260509105444 | 46 | 214 | 0.9 | 0.9 | 0.00 | 0.06 | 0.06 | 99 | 1011.0 |
| 20260509104940 | 46 | 22 | 0.0 | 0.0 | 0.00 | 0.06 | 0.06 | 98 | 1010.8 |
| 20260509104437 | 46 | 12 | 0.0 | 0.0 | 0.00 | 0.06 | 0.06 | 98 | 1010.9 |
| 20260509103934 | 46 | 7 | 0.0 | 0.0 | 0.00 | 0.06 | 0.06 | 98 | 1010.9 |
| 20260509103432 | 46 | 14 | 0.0 | 0.9 | 0.05 | 0.06 | 0.06 | 98 | 1010.8 |
| 20260509102930 | 46 | 185 | 0.9 | 1.7 | 0.05 | 0.06 | 0.06 | 98 | 1010.8 |
| 20260509102427 | 46 | 309 | 1.7 | 1.7 | 0.05 | 0.06 | 0.06 | 98 | 1010.9 |
| 20260509101923 | 46 | 329 | 1.7 | 1.7 | 0.07 | 0.05 | 0.05 | 97 | 1011.1 |
| 20260509101419 | 46 | 13 | 0.9 | 0.9 | 0.07 | 0.05 | 0.05 | 97 | 1011.2 |
| 20260509100917 | 46 | 304 | 0.9 | 0.9 | 0.05 | 0.04 | 0.04 | 97 | 1011.0 |
| 20260509100414 | 46 | 39 | 0.9 | 0.9 | 0.05 | 0.04 | 0.04 | 97 | 1011.3 |
| 20260509095910 | 46 | 346 | 2.6 | 2.6 | 0.00 | 0.03 | 0.03 | 96 | 1011.4 |
| 20260509095408 | 46 | 331 | 0.9 | 0.9 | 0.00 | 0.03 | 0.03 | 96 | 1011.1 |
| 20260509094905 | 46 | 56 | 0.9 | 0.9 | 0.00 | 0.03 | 0.03 | 96 | 1011.1 |
| 20260509094401 | 46 | 334 | 1.7 | 1.7 | 0.00 | 0.03 | 0.03 | 95 | 1011.2 |
| 20260509093859 | 46 | 321 | 1.7 | 1.7 | 0.00 | 0.03 | 0.03 | 95 | 1011.2 |
| 20260509093356 | 46 | 316 | 2.6 | 2.6 | 0.07 | 0.03 | 0.03 | 94 | 1011.4 |
| 20260509092855 | 47 | 307 | 1.7 | 1.7 | 0.07 | 0.03 | 0.03 | 94 | 1011.5 |
| 20260509092352 | 47 | 231 | 0.0 | 0.9 | 0.05 | 0.02 | 0.02 | 93 | 1011.3 |
| 20260509091850 | 47 | 325 | 1.7 | 1.7 | 0.05 | 0.02 | 0.02 | 91 | 1011.3 |
| 20260509091347 | 47 | 354 | 1.7 | 1.7 | 0.07 | 0.01 | 0.01 | 91 | 1011.6 |
| 20260509090844 | 48 | 311 | 2.6 | 4.3 | 0.07 | 0.01 | 0.01 | 89 | 1011.3 |
| 20260509090341 | 48 | 296 | 3.5 | 5.2 | 0.07 | 0.01 | 0.01 | 87 | 1011.4 |
| 20260509085838 | 49 | 335 | 4.3 | 5.2 | 0.00 | 0.00 | 0.00 | 83 | 1011.3 |
| 20260509085336 | 49 | 345 | 3.5 | 4.3 | 0.00 | 0.00 | 0.00 | 82 | 1011.3 |
| 20260509084832 | 50 | 10 | 0.0 | 0.9 | 0.00 | 0.00 | 0.00 | 79 | 1011.4 |
| 20260509084329 | 50 | 312 | 1.7 | 1.7 | 0.00 | 0.00 | 0.00 | 76 | 1011.1 |
| 20260509083827 | 51 | 22 | 0.9 | 1.7 | 0.00 | 0.00 | 0.00 | 72 | 1011.1 |
| 20260509083323 | 51 | 237 | 3.5 | 4.3 | 0.00 | 0.00 | 0.00 | 71 | 1011.1 |
| 20260509082820 | 51 | 215 | 1.7 | 2.6 | 0.00 | 0.00 | 0.00 | 70 | 1010.9 |
| 20260509082316 | 51 | 39 | 0.0 | 0.9 | 0.00 | 0.00 | 0.00 | 68 | 1011.0 |
| 20260509081814 | 51 | 239 | 2.6 | 4.3 | 0.00 | 0.00 | 0.00 | 67 | 1010.9 |
| 20260509081311 | 51 | 244 | 2.6 | 2.6 | 0.00 | 0.00 | 0.00 | 67 | 1010.8 |
| 20260509080809 | 52 | 353 | 1.7 | 1.7 | 0.00 | 0.00 | 0.00 | 64 | 1010.8 |
| 20260509080306 | 52 | 250 | 1.7 | 2.6 | 0.00 | 0.00 | 0.00 | 63 | 1010.7 |
| 20260509075805 | 52 | 264 | 2.6 | 5.2 | 0.00 | 0.00 | 0.00 | 62 | 1010.4 |
| 20260509075305 | 51 | 223 | 3.5 | 4.3 | 0.00 | 0.00 | 0.00 | 63 | 1010.6 |
| 20260509074758 | 51 | 221 | 3.5 | 4.3 | 0.00 | 0.00 | 0.00 | 62 | 1010.6 |
| 20260509074256 | 51 | 213 | 1.7 | 1.7 | 0.00 | 0.00 | 0.00 | 63 | 1010.3 |
| 20260509073752 | 51 | 214 | 0.9 | 0.9 | 0.00 | 0.00 | 0.00 | 64 | 1010.3 |
| 20260509073249 | 50 | 222 | 0.9 | 1.7 | 0.00 | 0.00 | 0.00 | 64 | 1010.3 |
| 20260509072745 | 50 | 222 | 0.0 | 0.0 | 0.00 | 0.00 | 0.00 | 66 | 1010.2 |
| 20260509072242 | 51 | 186 | 0.0 | 0.0 | 0.00 | 0.00 | 0.00 | 65 | 1010.3 |
| 20260509071739 | 50 | 206 | 0.9 | 1.7 | 0.00 | 0.00 | 0.00 | 65 | 1010.1 |
| 20260509071236 | 50 | 150 | 0.0 | 0.0 | 0.00 | 0.00 | 0.00 | 65 | 1010.2 |
| 20260509070733 | 50 | 162 | 0.0 | 0.0 | 0.00 | 0.00 | 0.00 | 66 | 1010.3 |
| 20260509070229 | 49 | 92 | 0.0 | 0.0 | 0.00 | 0.00 | 0.00 | 68 | 1010.3 |
| 20260509065726 | 50 | 92 | 0.0 | 0.0 | 0.00 | 0.00 | 0.00 | 67 | 1010.1 |
| 20260509065222 | 50 | 91 | 0.0 | 0.0 | 0.00 | 0.00 | 0.00 | 67 | 1010.4 |
| 20260509064718 | 50 | 91 | 0.0 | 0.0 | 0.00 | 0.00 | 0.00 | 68 | 1010.6 |
| 20260509064216 | 50 | 351 | 0.0 | 0.0 | 0.00 | 0.00 | 0.00 | 70 | 1010.2 |
| 20260509063713 | 50 | 150 | 0.9 | 0.9 | 0.00 | 0.00 | 0.00 | 67 | 1010.3 |
| 20260509063209 | 49 | 209 | 0.9 | 0.9 | 0.00 | 0.00 | 0.00 | 67 | 1010.4 |
| 20260509062707 | 49 | 149 | 0.0 | 0.0 | 0.00 | 0.00 | 0.00 | 70 | 1010.4 |
| 20260509062204 | 49 | 65 | 0.0 | 0.0 | 0.00 | 0.00 | 0.00 | 69 | 1010.2 |
| 20260509061701 | 48 | 64 | 0.0 | 0.0 | 0.00 | 0.00 | 0.00 | 71 | 1010.6 |
| 20260509061158 | 48 | 64 | 0.0 | 0.0 | 0.00 | 0.00 | 0.00 | 70 | 1010.6 |
| 20260509060656 | 48 | 64 | 0.0 | 0.0 | 0.00 | 0.00 | 0.00 | 69 | 1010.7 |
| 20260509060152 | 48 | 64 | 0.0 | 0.0 | 0.00 | 0.00 | 0.00 | 71 | 1010.7 |
| 20260509055647 | 49 | 64 | 0.0 | 0.0 | 0.00 | 0.00 | 0.00 | 70 | 1010.8 |
| 20260509055144 | 49 | 64 | 0.0 | 0.0 | 0.00 | 0.00 | 0.00 | 70 | 1010.9 |
| 20260509054640 | 49 | 64 | 0.0 | 0.0 | 0.00 | 0.00 | 0.00 | 70 | 1011.0 |
| 20260509054138 | 49 | 65 | 0.0 | 0.0 | 0.00 | 0.00 | 0.00 | 70 | 1011.0 |
| 20260509053636 | 50 | 33 | 0.0 | 0.0 | 0.00 | 0.00 | 0.00 | 70 | 1011.1 |
| 20260509053133 | 50 | 315 | 2.6 | 2.6 | 0.00 | 0.00 | 0.00 | 69 | 1011.1 |
| 20260509052631 | 49 | 237 | 0.0 | 0.0 | 0.00 | 0.00 | 0.00 | 69 | 1011.4 |
| 20260509052128 | 50 | 237 | 0.0 | 0.0 | 0.00 | 0.00 | 0.00 | 70 | 1011.5 |
| 20260509051626 | 50 | 237 | 0.0 | 0.0 | 0.00 | 0.00 | 0.00 | 68 | 1011.5 |
| 20260509051122 | 50 | 237 | 0.0 | 0.0 | 0.00 | 0.00 | 0.00 | 67 | 1011.6 |
| 20260509050620 | 51 | 237 | 0.0 | 0.0 | 0.00 | 0.00 | 0.00 | 67 | 1011.3 |
| 20260509050116 | 51 | 237 | 0.0 | 0.0 | 0.00 | 0.00 | 0.00 | 66 | 1011.5 |
| 20260509045614 | 51 | 237 | 0.0 | 0.0 | 0.00 | 0.00 | 0.00 | 66 | 1011.4 |
| 20260509045110 | 51 | 237 | 0.0 | 0.0 | 0.00 | 0.00 | 0.00 | 67 | 1011.5 |
| 20260509044608 | 51 | 237 | 0.0 | 0.0 | 0.00 | 0.00 | 0.00 | 67 | 1011.8 |
| 20260509044105 | 51 | 237 | 0.0 | 0.0 | 0.00 | 0.00 | 0.00 | 66 | 1011.9 |
| 20260509043601 | 51 | 237 | 0.0 | 0.0 | 0.00 | 0.00 | 0.00 | 66 | 1011.8 |
| 20260509043057 | 51 | 237 | 0.0 | 0.0 | 0.00 | 0.00 | 0.00 | 66 | 1011.6 |
| 20260509042553 | 51 | 237 | 0.0 | 0.0 | 0.00 | 0.00 | 0.00 | 66 | 1011.8 |
| 20260509042050 | 51 | 237 | 0.0 | 0.0 | 0.00 | 0.00 | 0.00 | 67 | 1011.7 |
| 20260509041547 | 51 | 238 | 0.0 | 0.0 | 0.00 | 0.00 | 0.00 | 66 | 1011.9 |
| 20260509041044 | 51 | 237 | 0.0 | 0.0 | 0.00 | 0.00 | 0.00 | 65 | 1011.6 |
| 20260509040543 | 52 | 237 | 0.0 | 0.0 | 0.00 | 0.00 | 0.00 | 65 | 1011.5 |
| 20260509040039 | 52 | 238 | 0.0 | 0.0 | 0.00 | 0.00 | 0.00 | 64 | 1011.7 |
| 20260509035536 | 52 | 238 | 0.0 | 0.0 | 0.00 | 0.00 | 0.00 | 64 | 1011.6 |
| 20260509035032 | 51 | 238 | 0.0 | 0.0 | 0.00 | 0.00 | 0.00 | 65 | 1011.8 |
| 20260509034531 | 52 | 238 | 0.0 | 0.0 | 0.00 | 0.00 | 0.00 | 66 | 1011.8 |
| 20260509034027 | 52 | 238 | 0.0 | 0.0 | 0.00 | 0.00 | 0.00 | 65 | 1011.8 |
| 20260509033525 | 52 | 238 | 0.0 | 0.0 | 0.00 | 0.00 | 0.00 | 66 | 1012.2 |
| 20260509033021 | 52 | 238 | 0.0 | 0.0 | 0.00 | 0.00 | 0.00 | 65 | 1011.9 |
| 20260509032519 | 52 | 238 | 0.0 | 0.0 | 0.00 | 0.00 | 0.00 | 65 | 1012.1 |
| 20260509032016 | 52 | 239 | 0.0 | 0.0 | 0.00 | 0.00 | 0.00 | 67 | 1012.2 |
| 20260509031513 | 51 | 238 | 0.0 | 0.0 | 0.00 | 0.00 | 0.00 | 65 | 1012.1 |
| 20260509031010 | 52 | 238 | 0.0 | 0.0 | 0.00 | 0.00 | 0.00 | 66 | 1012.1 |
| 20260509030508 | 52 | 238 | 0.0 | 0.0 | 0.00 | 0.00 | 0.00 | 65 | 1011.8 |
| 20260509030005 | 52 | 238 | 0.0 | 0.0 | 0.00 | 0.00 | 0.00 | 65 | 1012.1 |
| 20260509025500 | 53 | 238 | 0.0 | 0.0 | 0.00 | 0.00 | 0.00 | 64 | 1012.1 |
| 20260509024956 | 53 | 238 | 0.0 | 0.0 | 0.00 | 0.00 | 0.00 | 62 | 1012.1 |
| 20260509024452 | 53 | 237 | 0.0 | 0.0 | 0.00 | 0.00 | 0.00 | 61 | 1011.9 |
| 20260509023949 | 53 | 258 | 0.0 | 0.0 | 0.00 | 0.00 | 0.00 | 61 | 1012.2 |
| 20260509023447 | 53 | 258 | 0.0 | 0.0 | 0.00 | 0.00 | 0.00 | 63 | 1012.3 |
| 20260509022943 | 53 | 230 | 0.0 | 0.0 | 0.00 | 0.00 | 0.00 | 61 | 1012.1 |
| 20260509022440 | 53 | 273 | 0.9 | 0.9 | 0.00 | 0.00 | 0.00 | 62 | 1012.1 |
| 20260509021938 | 53 | 224 | 1.7 | 1.7 | 0.00 | 0.00 | 0.00 | 62 | 1012.1 |
| 20260509021434 | 53 | 221 | 0.0 | 0.0 | 0.00 | 0.00 | 0.00 | 64 | 1012.2 |
| 20260509020932 | 53 | 195 | 0.0 | 0.0 | 0.00 | 0.00 | 0.00 | 62 | 1012.1 |
| 20260509020430 | 53 | 177 | 0.0 | 0.0 | 0.00 | 0.00 | 0.00 | 60 | 1012.2 |
| 20260509015926 | 53 | 177 | 0.0 | 0.0 | 0.00 | 0.00 | 0.00 | 61 | 1011.8 |
| 20260509015426 | 53 | 177 | 0.0 | 0.0 | 0.00 | 0.00 | 0.00 | 62 | 1011.9 |
| 20260509014922 | 53 | 177 | 0.0 | 0.0 | 0.00 | 0.00 | 0.00 | 62 | 1012.1 |
| 20260509014418 | 53 | 203 | 0.0 | 0.0 | 0.00 | 0.00 | 0.00 | 62 | 1011.7 |
| 20260509013915 | 53 | 203 | 0.0 | 0.0 | 0.00 | 0.00 | 0.00 | 62 | 1011.7 |
| 20260509013412 | 54 | 203 | 0.0 | 0.0 | 0.00 | 0.00 | 0.00 | 59 | 1011.6 |
| 20260509012907 | 54 | 203 | 0.0 | 0.9 | 0.00 | 0.00 | 0.00 | 60 | 1011.9 |
| 20260509012404 | 54 | 244 | 0.0 | 0.0 | 0.00 | 0.00 | 0.00 | 58 | 1011.7 |
| 20260509011901 | 55 | 244 | 0.9 | 1.7 | 0.00 | 0.00 | 0.00 | 58 | 1011.7 |
| 20260509011359 | 55 | 201 | 0.0 | 0.9 | 0.00 | 0.00 | 0.00 | 58 | 1011.8 |
| 20260509010857 | 54 | 263 | 0.9 | 0.9 | 0.00 | 0.00 | 0.00 | 57 | 1011.8 |
| 20260509010354 | 55 | 29 | 0.0 | 0.0 | 0.00 | 0.00 | 0.00 | 59 | 1011.8 |
| 20260509005851 | 55 | 10 | 0.9 | 0.9 | 0.00 | 0.00 | 0.00 | 57 | 1011.8 |
| 20260509005349 | 55 | 217 | 0.9 | 0.9 | 0.00 | 0.00 | 0.00 | 57 | 1011.7 |
| 20260509004849 | 55 | 94 | 0.0 | 0.0 | 0.00 | 0.00 | 0.00 | 57 | 1011.9 |
| 20260509004345 | 55 | 263 | 0.0 | 0.0 | 0.00 | 0.00 | 0.00 | 56 | 1011.8 |
| 20260509003843 | 55 | 122 | 0.9 | 1.7 | 0.00 | 0.00 | 0.00 | 56 | 1011.5 |
| 20260509003341 | 55 | 214 | 0.0 | 0.9 | 0.00 | 0.00 | 0.00 | 55 | 1011.6 |
| 20260509002837 | 55 | 241 | 1.7 | 1.7 | 0.00 | 0.00 | 0.00 | 56 | 1011.6 |
| 20260509002335 | 56 | 264 | 1.7 | 1.7 | 0.00 | 0.00 | 0.00 | 56 | 1011.6 |
| 20260509001833 | 56 | 259 | 1.7 | 1.7 | 0.00 | 0.00 | 0.00 | 55 | 1011.4 |
| 20260509001328 | 55 | 203 | 4.3 | 5.2 | 0.00 | 0.00 | 0.00 | 56 | 1011.2 |
| 20260509000826 | 56 | 248 | 1.7 | 2.6 | 0.00 | 0.00 | 0.00 | 55 | 1011.8 |
| 20260509000325 | 55 | 267 | 1.7 | 1.7 | 0.00 | 0.00 | 0.00 | 55 | 1011.6 |
| 20260508235820 | 56 | 209 | 0.9 | 0.9 | 0.00 | 0.00 | 0.00 | 55 | 1011.5 |
| 20260508235317 | 56 | 258 | 0.9 | 1.7 | 0.00 | 0.00 | 0.00 | 56 | 1011.5 |
| 20260508234814 | 56 | 47 | 0.0 | 0.0 | 0.00 | 0.00 | 0.00 | 55 | 1011.6 |
| 20260508234310 | 56 | 338 | 1.7 | 2.6 | 0.00 | 0.00 | 0.00 | 55 | 1011.6 |
| 20260508233809 | 56 | 127 | 0.0 | 0.9 | 0.00 | 0.00 | 0.00 | 56 | 1011.5 |
| 20260508233308 | 56 | 273 | 0.9 | 1.7 | 0.00 | 0.00 | 0.00 | 56 | 1011.6 |
| 20260508232805 | 56 | 217 | 0.9 | 0.9 | 0.00 | 0.00 | 0.00 | 56 | 1011.4 |
| 20260508232301 | 56 | 224 | 1.7 | 1.7 | 0.00 | 0.00 | 0.00 | 55 | 1011.3 |
| 20260508231800 | 55 | 224 | 1.7 | 2.6 | 0.00 | 0.00 | 0.00 | 57 | 1011.2 |
| 20260508231255 | 55 | 69 | 0.9 | 0.9 | 0.00 | 0.00 | 0.00 | 57 | 1011.4 |
| 20260508230752 | 55 | 204 | 4.3 | 5.2 | 0.00 | 0.00 | 0.00 | 56 | 1011.2 |
| 20260508230248 | 55 | 221 | 2.6 | 2.6 | 0.00 | 0.00 | 0.00 | 55 | 1011.2 |
| 20260508225746 | 56 | 215 | 5.2 | 7.8 | 0.00 | 0.00 | 0.00 | 55 | 1011.1 |
| 20260508225242 | 56 | 208 | 2.6 | 4.3 | 0.00 | 0.00 | 0.00 | 54 | 1011.4 |
| 20260508224740 | 56 | 330 | 2.6 | 2.6 | 0.00 | 0.00 | 0.00 | 54 | 1011.4 |
| 20260508224238 | 56 | 225 | 3.5 | 5.2 | 0.00 | 0.00 | 0.00 | 54 | 1011.3 |
| 20260508223735 | 57 | 4 | 1.7 | 1.7 | 0.00 | 0.00 | 0.00 | 53 | 1011.3 |
| 20260508223232 | 57 | 202 | 7.0 | 9.6 | 0.00 | 0.00 | 0.00 | 53 | 1011.2 |
| 20260508222729 | 57 | 217 | 1.7 | 1.7 | 0.00 | 0.00 | 0.00 | 54 | 1011.2 |
| 20260508222227 | 57 | 302 | 0.9 | 1.7 | 0.00 | 0.00 | 0.00 | 55 | 1011.2 |
| 20260508221723 | 57 | 12 | 2.6 | 2.6 | 0.00 | 0.00 | 0.00 | 54 | 1011.4 |
| 20260508221219 | 57 | 202 | 4.3 | 5.2 | 0.00 | 0.00 | 0.00 | 53 | 1011.1 |
| 20260508220715 | 57 | 206 | 3.5 | 4.3 | 0.00 | 0.00 | 0.00 | 53 | 1011.2 |
| 20260508220212 | 59 | 229 | 4.3 | 5.2 | 0.00 | 0.00 | 0.00 | 51 | 1011.3 |
| 20260508215708 | 59 | 247 | 2.6 | 4.3 | 0.00 | 0.00 | 0.00 | 50 | 1011.6 |
| 20260508215205 | 59 | 273 | 2.6 | 2.6 | 0.00 | 0.00 | 0.00 | 50 | 1011.4 |
| 20260508214702 | 58 | 304 | 3.5 | 4.3 | 0.00 | 0.00 | 0.00 | 51 | 1011.8 |
| 20260508214200 | 58 | 118 | 0.9 | 0.9 | 0.00 | 0.00 | 0.00 | 51 | 1011.7 |
| 20260508213656 | 58 | 262 | 5.2 | 6.1 | 0.00 | 0.00 | 0.00 | 51 | 1011.9 |
| 20260508213152 | 59 | 91 | 2.6 | 4.3 | 0.00 | 0.00 | 0.00 | 52 | 1011.8 |